createdAt,value
2023-05-23T00:02:30.938Z,64.68
2023-05-23T00:07:35.099Z,65.19
2023-05-23T00:12:39.880Z,65.43
2023-05-23T00:17:45.771Z,65.77
2023-05-23T00:22:49.693Z,66.07
2023-05-23T00:27:53.410Z,66.61
2023-05-23T00:32:57.208Z,66.83
2023-05-23T00:38:02.585Z,67.15
2023-05-23T00:43:07.854Z,67.45
2023-05-23T00:48:12.482Z,67.83
2023-05-23T00:53:20.823Z,68.12
2023-05-23T00:58:25.496Z,68.48
2023-05-23T01:03:31.482Z,68.62
2023-05-23T01:08:36.884Z,68.98
2023-05-23T01:13:45.480Z,69.07
2023-05-23T01:18:58.765Z,69.39
2023-05-23T01:24:24.091Z,69.71
2023-05-23T01:29:32.251Z,70.09
2023-05-23T01:34:38.321Z,70.28
2023-05-23T01:39:44.170Z,70.58
2023-05-23T01:44:48.114Z,71.03
2023-05-23T01:49:52.670Z,71.21
2023-05-23T01:54:57.345Z,71.43
2023-05-23T02:00:01.303Z,71.64
2023-05-23T02:05:05.772Z,71.84
2023-05-23T02:10:10.776Z,72.11
2023-05-23T02:15:15.160Z,72.50
2023-05-23T02:20:19.490Z,72.92
2023-05-23T02:25:25.302Z,73.50
2023-05-23T02:30:30.006Z,73.61
2023-05-23T02:35:34.812Z,73.95
2023-05-23T02:40:40.681Z,74.51
2023-05-23T02:45:44.909Z,74.80
2023-05-23T02:50:49.685Z,75.18
2023-05-23T02:55:54.885Z,75.22
2023-05-23T03:00:58.992Z,75.30
2023-05-23T03:06:07.235Z,75.71
2023-05-23T03:11:12.166Z,76.02
2023-05-23T03:16:16.123Z,76.41
2023-05-23T03:21:20.063Z,76.39
2023-05-23T03:26:27.245Z,76.55
2023-05-23T03:31:32.854Z,76.49
2023-05-23T03:36:40.005Z,76.58
2023-05-23T03:41:44.556Z,75.87
2023-05-23T03:46:49.459Z,75.51
2023-05-23T03:51:54.770Z,74.19
2023-05-23T03:56:59.370Z,73.70
2023-05-23T04:02:03.571Z,74.37
2023-05-23T04:07:08.740Z,74.80
2023-05-23T04:12:13.023Z,73.64
2023-05-23T04:17:17.008Z,72.81
2023-05-23T04:22:21.402Z,71.47
2023-05-23T04:27:26.460Z,71.91
2023-05-23T04:32:31.394Z,72.51
2023-05-23T04:37:35.582Z,72.58
2023-05-23T04:42:42.850Z,72.08
2023-05-23T04:48:00.296Z,70.86
2023-05-23T04:53:23.658Z,69.58
2023-05-23T04:58:28.010Z,68.82
2023-05-23T05:03:35.282Z,68.80
2023-05-23T05:08:58.832Z,68.30
2023-05-23T05:14:02.719Z,68.13
2023-05-23T05:19:06.710Z,68.23
2023-05-23T05:24:11.581Z,68.35
2023-05-23T05:29:29.203Z,68.14
2023-05-23T05:34:33.788Z,67.68
2023-05-23T05:39:37.700Z,67.48
2023-05-23T05:44:42.667Z,67.19
2023-05-23T05:49:46.633Z,66.72
2023-05-23T05:54:50.350Z,66.11
2023-05-23T05:59:54.527Z,66.37
2023-05-23T06:04:58.516Z,66.04
2023-05-23T06:10:02.822Z,66.12
2023-05-23T06:15:07.784Z,66.03
2023-05-23T06:20:12.849Z,65.84
2023-05-23T06:25:18.431Z,65.36
2023-05-23T06:30:23.676Z,65.48
2023-05-23T06:35:28.807Z,65.02
2023-05-23T06:40:32.492Z,64.58
2023-05-23T06:45:39.313Z,64.26
2023-05-23T06:50:43.287Z,64.28
2023-05-23T06:55:48.215Z,63.91
2023-05-23T07:00:54.552Z,63.40
2023-05-23T07:06:02.625Z,62.42
2023-05-23T07:11:07.252Z,62.55
2023-05-23T07:16:16.900Z,61.85
2023-05-23T07:21:33.439Z,61.52
2023-05-23T07:26:38.611Z,60.96
2023-05-23T07:31:42.853Z,60.92
2023-05-23T07:36:47.974Z,61.20
2023-05-23T07:41:52.323Z,59.96
2023-05-23T07:46:56.668Z,59.93
2023-05-23T07:52:01.324Z,59.48
2023-05-23T07:57:07.702Z,59.62
2023-05-23T08:02:12.636Z,58.85
2023-05-23T08:07:19.321Z,58.62
2023-05-23T08:12:27.701Z,57.98
2023-05-23T08:17:38.487Z,57.37
2023-05-23T08:22:42.567Z,57.95
2023-05-23T08:27:46.586Z,57.01
2023-05-23T08:33:09.027Z,57.22
2023-05-23T08:38:13.587Z,57.74
2023-05-23T08:43:27.273Z,57.01
2023-05-23T08:48:31.643Z,57.59
2023-05-23T08:53:37.879Z,57.33
2023-05-23T08:58:43.991Z,57.33
2023-05-23T09:03:50.638Z,57.02
2023-05-23T09:09:06.344Z,56.29
2023-05-23T09:14:10.037Z,56.96
2023-05-23T09:19:15.320Z,56.96
2023-05-23T09:24:34.969Z,56.70
2023-05-23T09:29:42.311Z,56.91
2023-05-23T09:34:59.555Z,58.37
2023-05-23T09:40:14.980Z,59.81
2023-05-23T09:45:33.798Z,60.74
2023-05-23T09:50:38.497Z,62.12
2023-05-23T09:55:42.806Z,63.95
2023-05-23T10:00:52.767Z,65.23
2023-05-23T10:06:02.803Z,65.74
2023-05-23T10:11:12.570Z,65.86
2023-05-23T10:16:29.713Z,67.88
2023-05-23T10:21:42.331Z,68.49
2023-05-23T10:26:47.722Z,68.28
2023-05-23T10:31:52.915Z,68.12
2023-05-23T10:37:05.775Z,68.13
2023-05-23T10:42:25.379Z,68.94
2023-05-23T10:47:29.269Z,69.90
2023-05-23T10:52:43.951Z,70.60
2023-05-23T10:57:48.474Z,70.09
2023-05-23T11:02:56.072Z,69.87
2023-05-23T11:08:10.366Z,69.89
2023-05-23T11:13:14.770Z,71.45
2023-05-23T11:18:29.267Z,71.71
2023-05-23T11:23:42.316Z,70.90
2023-05-23T11:28:59.540Z,70.69
2023-05-23T11:34:03.309Z,71.41
2023-05-23T11:39:07.164Z,71.13
2023-05-23T11:44:14.204Z,69.96
2023-05-23T11:49:19.589Z,69.30
2023-05-23T11:54:25.568Z,69.43
2023-05-23T11:59:30.005Z,69.23
2023-05-23T12:04:38.926Z,68.93
2023-05-23T12:09:44.441Z,69.30
2023-05-23T12:14:48.248Z,68.18
2023-05-23T12:19:53.383Z,68.96
2023-05-23T12:24:59.655Z,68.96
2023-05-23T12:30:12.839Z,68.36
2023-05-23T12:35:16.946Z,68.17
2023-05-23T12:40:21.492Z,68.01
2023-05-23T12:45:37.198Z,67.87
2023-05-23T12:50:41.849Z,67.38
2023-05-23T12:55:48.836Z,67.59
2023-05-23T13:00:52.712Z,67.55
2023-05-23T13:05:57.048Z,67.72
2023-05-23T13:11:01.150Z,67.31
2023-05-23T13:16:05.220Z,67.14
2023-05-23T13:21:14.216Z,67.46
2023-05-23T13:26:19.120Z,66.19
2023-05-23T13:31:23.814Z,66.31
2023-05-23T13:36:28.128Z,66.10
2023-05-23T13:41:31.853Z,65.26
2023-05-23T13:46:35.436Z,65.02
2023-05-23T13:51:39.191Z,64.02
2023-05-23T13:56:42.840Z,63.94
2023-05-23T14:01:46.876Z,64.10
2023-05-23T14:06:51.322Z,64.22
2023-05-23T14:11:56.682Z,63.86
2023-05-23T14:17:03.669Z,63.49
2023-05-23T14:22:07.441Z,63.41
2023-05-23T14:27:11.571Z,64.01
2023-05-23T14:32:15.406Z,64.17
2023-05-23T14:37:19.221Z,63.90
2023-05-23T14:42:22.909Z,64.29
2023-05-23T14:47:27.044Z,64.17
2023-05-23T14:52:30.934Z,64.26
2023-05-23T14:57:34.677Z,64.54
2023-05-23T15:02:38.764Z,64.18
2023-05-23T15:07:42.468Z,64.66
2023-05-23T15:12:46.288Z,64.36
2023-05-23T15:17:51.452Z,64.40
2023-05-23T15:22:55.162Z,64.51
2023-05-23T15:28:00.494Z,63.98
2023-05-23T15:33:04.490Z,64.29
2023-05-23T15:38:08.359Z,64.16
2023-05-23T15:43:12.380Z,64.20
2023-05-23T15:48:16.311Z,63.86
2023-05-23T15:53:21.048Z,63.90
2023-05-23T15:58:24.804Z,64.49
2023-05-23T16:03:28.583Z,63.91
2023-05-23T16:08:32.756Z,62.85
2023-05-23T16:13:36.665Z,63.06
2023-05-23T16:18:40.759Z,63.14
2023-05-23T16:23:44.494Z,63.23
2023-05-23T16:28:48.351Z,63.50
2023-05-23T16:33:52.806Z,63.53
2023-05-23T16:38:56.686Z,64.01
2023-05-23T16:44:00.672Z,64.70
2023-05-23T16:49:04.958Z,64.12
2023-05-23T16:54:10.697Z,62.67
2023-05-23T16:59:14.744Z,62.98
2023-05-23T17:04:20.492Z,63.20
2023-05-23T17:09:24.974Z,63.68
2023-05-23T17:14:29.025Z,64.03
2023-05-23T17:19:33.779Z,64.33
2023-05-23T17:24:37.702Z,64.59
2023-05-23T17:29:41.381Z,65.16
2023-05-23T17:34:45.064Z,65.87
2023-05-23T17:39:51.246Z,66.80
2023-05-23T17:44:54.969Z,67.52
2023-05-23T17:49:58.670Z,68.19
2023-05-23T17:55:02.413Z,69.10
2023-05-23T18:00:07.038Z,70.23
2023-05-23T18:05:16.736Z,71.11
2023-05-23T18:10:20.950Z,71.92
2023-05-23T18:15:26.176Z,72.75
2023-05-23T18:20:29.875Z,73.46
2023-05-23T18:25:33.884Z,74.50
2023-05-23T18:30:37.809Z,75.10
2023-05-23T18:35:41.806Z,75.95
2023-05-23T18:40:45.698Z,76.60
2023-05-23T18:45:49.620Z,77.99
2023-05-23T18:50:53.379Z,78.31
2023-05-23T18:55:57.110Z,80.71
2023-05-23T19:01:04.175Z,81.26
2023-05-23T19:06:08.409Z,82.70
2023-05-23T19:11:12.462Z,82.10
2023-05-23T19:16:17.856Z,83.23
2023-05-23T19:21:23.196Z,83.21
2023-05-23T19:26:27.458Z,83.31
2023-05-23T19:31:32.112Z,84.39
2023-05-23T19:36:36.989Z,84.74
2023-05-23T19:41:42.148Z,84.79
2023-05-23T19:46:47.376Z,86.19
2023-05-23T19:51:51.173Z,86.77
2023-05-23T19:56:54.885Z,87.33
2023-05-23T20:01:58.976Z,87.64
2023-05-23T20:07:02.902Z,88.65
2023-05-23T20:12:07.061Z,88.85
2023-05-23T20:17:11.073Z,90.18
2023-05-23T20:22:14.771Z,90.41
2023-05-23T20:27:18.509Z,91.43
2023-05-23T20:32:22.156Z,91.50
2023-05-23T20:37:28.679Z,91.79
2023-05-23T20:42:33.210Z,92.28
2023-05-23T20:47:38.134Z,93.06
2023-05-23T20:52:43.483Z,92.55
2023-05-23T20:57:47.214Z,92.49
2023-05-23T21:02:51.568Z,92.84
2023-05-23T21:07:55.604Z,93.22
2023-05-23T21:13:00.577Z,93.55
2023-05-23T21:18:04.730Z,93.79
2023-05-23T21:23:08.501Z,94.17
2023-05-23T21:28:12.241Z,94.81
2023-05-23T21:33:16.817Z,95.13
2023-05-23T21:38:20.703Z,95.56
2023-05-23T21:43:24.470Z,96.16
2023-05-23T21:48:28.314Z,96.61
2023-05-23T21:53:32.113Z,97.17
2023-05-23T21:58:36.023Z,98.68
2023-05-23T22:03:40.772Z,99.32
2023-05-23T22:08:46.792Z,98.97
2023-05-23T22:13:51.354Z,98.94
2023-05-23T22:18:58.449Z,99.23
2023-05-23T22:24:02.213Z,99.20
2023-05-23T22:29:07.365Z,98.58
2023-05-23T22:34:11.441Z,99.02
2023-05-23T22:39:15.325Z,99.02
2023-05-23T22:44:18.995Z,99.16
2023-05-23T22:49:22.726Z,99.61
2023-05-23T22:54:26.574Z,99.61
2023-05-23T22:59:31.320Z,99.63
2023-05-23T23:04:35.645Z,99.54
2023-05-23T23:09:39.912Z,99.62
2023-05-23T23:14:43.842Z,99.85
2023-05-23T23:19:50.646Z,99.99
2023-05-23T23:24:54.493Z,100.00
2023-05-23T23:30:02.206Z,100.00
2023-05-23T23:35:06.398Z,100.00
2023-05-23T23:40:11.103Z,100.00
2023-05-23T23:45:14.905Z,100.00
2023-05-23T23:50:19.438Z,100.00
2023-05-23T23:55:23.341Z,100.00
